createdAt,value
2019-05-02T08:00:38.676Z,534.38
2019-05-02T08:01:38.617Z,534.38
2019-05-02T08:02:38.614Z,534.38
2019-05-02T08:03:38.593Z,540.00
2019-05-02T08:04:38.585Z,579.38
2019-05-02T08:05:38.585Z,613.12
2019-05-02T08:06:40.174Z,601.88
2019-05-02T08:07:39.577Z,596.25
2019-05-02T08:08:38.620Z,579.38
2019-05-02T08:09:39.153Z,579.38
2019-05-02T08:10:39.546Z,596.25
2019-05-02T08:11:38.682Z,630.00
2019-05-02T08:12:38.687Z,652.50
2019-05-02T08:13:38.487Z,658.12
2019-05-02T08:14:38.512Z,624.38
2019-05-02T08:15:38.485Z,601.88
2019-05-02T08:16:38.456Z,618.75
2019-05-02T08:17:38.449Z,585.00
2019-05-02T08:18:38.516Z,596.25
2019-05-02T08:19:41.857Z,613.12
2019-05-02T08:20:38.412Z,641.25
2019-05-02T08:21:38.458Z,646.88
2019-05-02T08:22:38.475Z,646.88
2019-05-02T08:23:38.380Z,630.00
2019-05-02T08:24:39.325Z,613.12
2019-05-02T08:25:41.522Z,590.62
2019-05-02T08:26:39.345Z,573.75
2019-05-02T08:27:38.333Z,562.50
2019-05-02T08:28:38.319Z,573.75
2019-05-02T08:29:38.319Z,590.62
2019-05-02T08:30:40.513Z,568.12
2019-05-02T08:31:38.304Z,551.25
2019-05-02T08:32:38.277Z,551.25
2019-05-02T08:33:38.262Z,540.00
2019-05-02T08:34:38.257Z,534.38
2019-05-02T08:35:38.249Z,534.38
2019-05-02T08:36:38.267Z,540.00
2019-05-02T08:37:41.237Z,534.38
2019-05-02T08:38:38.206Z,556.88
2019-05-02T08:39:38.198Z,556.88
2019-05-02T08:40:42.286Z,551.25
2019-05-02T08:41:39.204Z,551.25
2019-05-02T08:42:38.162Z,556.88
2019-05-02T08:43:43.253Z,545.62
2019-05-02T08:44:50.349Z,540.00
2019-05-02T08:45:39.639Z,523.12
2019-05-02T08:46:38.119Z,523.12
2019-05-02T08:47:38.142Z,528.75
2019-05-02T08:48:41.812Z,534.38
2019-05-02T08:49:39.087Z,545.62
2019-05-02T08:50:38.074Z,556.88
2019-05-02T08:51:38.086Z,551.25
2019-05-02T08:52:42.195Z,545.62
2019-05-02T08:53:38.073Z,551.25
2019-05-02T08:54:38.061Z,556.88
2019-05-02T08:55:41.236Z,562.50
2019-05-02T08:56:39.007Z,568.12
2019-05-02T08:57:37.999Z,573.75
2019-05-02T08:58:38.009Z,590.62
2019-05-02T08:59:40.722Z,613.12
2019-05-02T09:00:39.584Z,624.38
2019-05-02T09:01:37.955Z,630.00
2019-05-02T09:02:41.420Z,658.12
2019-05-02T09:03:54.842Z,691.88
2019-05-02T09:04:38.949Z,725.62
2019-05-02T09:05:45.626Z,753.75
2019-05-02T09:06:38.896Z,759.38
2019-05-02T09:07:39.374Z,765.00
2019-05-02T09:08:37.877Z,781.88
2019-05-02T09:09:37.871Z,742.50
2019-05-02T09:10:42.195Z,697.50
2019-05-02T09:11:38.840Z,658.12
2019-05-02T09:12:42.039Z,641.25
2019-05-02T09:13:38.815Z,618.75
2019-05-02T09:14:37.803Z,590.62
2019-05-02T09:15:40.256Z,590.62
2019-05-02T09:16:38.844Z,624.38
2019-05-02T09:17:38.835Z,646.88
2019-05-02T09:18:44.835Z,658.12
2019-05-02T09:19:38.750Z,691.88
2019-05-02T09:20:37.741Z,708.75
2019-05-02T09:21:37.735Z,742.50
2019-05-02T09:22:37.768Z,770.62
2019-05-02T09:23:37.711Z,776.25
2019-05-02T09:24:37.696Z,798.75
2019-05-02T09:25:37.690Z,787.50
2019-05-02T09:26:38.736Z,759.38
2019-05-02T09:27:37.667Z,720.00
2019-05-02T09:28:37.768Z,731.25
2019-05-02T09:29:44.429Z,714.38
2019-05-02T09:30:38.628Z,680.62
2019-05-02T09:31:42.238Z,658.12
2019-05-02T09:32:38.609Z,646.88
2019-05-02T09:33:45.233Z,669.38
2019-05-02T09:34:38.625Z,703.12
2019-05-02T09:35:37.591Z,697.50
2019-05-02T09:36:38.201Z,714.38
2019-05-02T09:37:37.552Z,714.38
2019-05-02T09:38:37.544Z,720.00
2019-05-02T09:39:37.534Z,703.12
2019-05-02T09:40:37.557Z,697.50
2019-05-02T09:41:37.529Z,680.62
2019-05-02T09:42:37.501Z,669.38
2019-05-02T09:43:39.066Z,641.25
2019-05-02T09:44:37.500Z,624.38
2019-05-02T09:45:39.501Z,618.75
2019-05-02T09:46:37.498Z,613.12
2019-05-02T09:47:53.201Z,596.25
2019-05-02T09:48:38.430Z,613.12
2019-05-02T09:49:43.547Z,613.12
2019-05-02T09:50:38.613Z,630.00
2019-05-02T09:51:37.399Z,635.62
2019-05-02T09:52:39.669Z,646.88
2019-05-02T09:53:37.378Z,641.25
2019-05-02T09:54:42.446Z,652.50
2019-05-02T09:55:42.366Z,646.88
2019-05-02T09:56:37.362Z,641.25
2019-05-02T09:57:37.341Z,641.25
2019-05-02T09:58:37.360Z,624.38
2019-05-02T09:59:37.314Z,618.75
2019-05-02T10:00:37.310Z,613.12
2019-05-02T10:01:37.291Z,596.25
2019-05-02T10:02:37.317Z,573.75
2019-05-02T10:03:37.276Z,585.00
2019-05-02T10:04:37.299Z,607.50
2019-05-02T10:05:37.246Z,630.00
2019-05-02T10:06:37.232Z,641.25
2019-05-02T10:07:37.221Z,635.62
2019-05-02T10:08:38.319Z,646.88
2019-05-02T10:09:38.259Z,658.12
2019-05-02T10:10:41.840Z,652.50
2019-05-02T10:11:38.178Z,652.50
2019-05-02T10:12:37.177Z,641.25
2019-05-02T10:13:37.164Z,641.25
2019-05-02T10:14:37.146Z,646.88
2019-05-02T10:15:37.194Z,646.88
2019-05-02T10:16:37.132Z,646.88
2019-05-02T10:17:37.536Z,658.12
2019-05-02T10:18:37.105Z,658.12
2019-05-02T10:19:41.141Z,646.88
2019-05-02T10:20:38.117Z,652.50
2019-05-02T10:21:37.099Z,663.75
2019-05-02T10:22:39.352Z,669.38
2019-05-02T10:23:37.051Z,686.25
2019-05-02T10:24:37.041Z,686.25
2019-05-02T10:25:38.990Z,697.50
2019-05-02T10:26:38.044Z,703.12
2019-05-02T10:27:38.508Z,691.88
2019-05-02T10:28:41.779Z,691.88
2019-05-02T10:29:37.984Z,703.12
2019-05-02T10:30:36.973Z,714.38
2019-05-02T10:31:37.814Z,714.38
2019-05-02T10:32:36.998Z,720.00
2019-05-02T10:33:37.672Z,725.62
2019-05-02T10:34:36.940Z,731.25
2019-05-02T10:35:40.582Z,736.88
2019-05-02T10:36:36.912Z,748.12
2019-05-02T10:37:38.193Z,753.75
2019-05-02T10:38:36.923Z,770.62
2019-05-02T10:39:37.958Z,759.38
2019-05-02T10:40:36.891Z,759.38
2019-05-02T10:41:39.644Z,759.38
2019-05-02T10:42:36.842Z,759.38
2019-05-02T10:43:36.833Z,781.88
2019-05-02T10:44:36.867Z,798.75
2019-05-02T10:45:36.812Z,832.50
2019-05-02T10:46:37.918Z,838.12
2019-05-02T10:47:36.788Z,843.75
2019-05-02T10:48:36.783Z,838.12
2019-05-02T10:49:36.767Z,849.38
2019-05-02T10:50:36.806Z,826.88
2019-05-02T10:51:41.755Z,922.50
2019-05-02T10:52:37.771Z,928.12
2019-05-02T10:53:36.731Z,933.75
2019-05-02T10:54:37.458Z,973.12
2019-05-02T10:55:36.702Z,995.62
2019-05-02T10:56:36.720Z,1006.88
2019-05-02T10:57:36.699Z,1029.38
2019-05-02T10:58:36.670Z,1006.88
2019-05-02T10:59:36.696Z,1057.50
2019-05-02T11:00:36.646Z,1080.00
2019-05-02T11:01:36.637Z,1080.00
2019-05-02T11:02:36.673Z,1001.25
2019-05-02T11:03:38.003Z,1125.00
2019-05-02T11:04:37.616Z,1113.75
2019-05-02T11:05:37.410Z,1158.75
2019-05-02T11:06:37.143Z,1186.88
2019-05-02T11:07:37.623Z,1170.00
2019-05-02T11:08:40.958Z,1215.00
2019-05-02T11:09:37.551Z,1305.00
2019-05-02T11:10:36.537Z,1355.62
2019-05-02T11:11:36.561Z,1378.12
2019-05-02T11:12:44.514Z,1389.38
2019-05-02T11:13:37.544Z,1310.62
2019-05-02T11:14:36.499Z,1310.62
2019-05-02T11:15:36.483Z,1350.00
2019-05-02T11:16:36.471Z,1355.62
2019-05-02T11:17:36.681Z,1417.50
2019-05-02T11:18:41.885Z,1473.75
2019-05-02T11:19:37.499Z,1344.38
2019-05-02T11:20:36.428Z,1451.25
2019-05-02T11:21:36.424Z,1445.62
2019-05-02T11:22:36.410Z,1423.12
2019-05-02T11:23:36.426Z,1456.88
2019-05-02T11:24:36.434Z,1451.25
2019-05-02T11:25:36.432Z,1406.25
2019-05-02T11:26:36.395Z,1462.50
2019-05-02T11:27:36.354Z,1434.38
2019-05-02T11:28:36.355Z,1479.38
2019-05-02T11:29:36.346Z,1440.00
2019-05-02T11:30:36.324Z,1451.25
2019-05-02T11:31:36.351Z,1366.88
2019-05-02T11:32:36.410Z,1372.50
2019-05-02T11:33:36.291Z,1445.62
2019-05-02T11:34:36.279Z,1423.12
2019-05-02T11:35:36.277Z,1434.38
2019-05-02T11:36:36.256Z,1473.75
2019-05-02T11:37:36.296Z,1507.50
2019-05-02T11:38:36.918Z,1428.75
2019-05-02T11:39:45.377Z,1440.00
2019-05-02T11:40:37.247Z,1563.75
2019-05-02T11:41:36.204Z,1636.88
2019-05-02T11:42:36.198Z,1732.50
2019-05-02T11:43:37.249Z,1760.62
2019-05-02T11:44:37.169Z,1732.50
2019-05-02T11:45:36.167Z,1507.50
2019-05-02T11:46:37.497Z,1417.50
2019-05-02T11:47:37.137Z,1620.00
2019-05-02T11:48:36.128Z,1518.75
2019-05-02T11:49:36.161Z,1608.75
2019-05-02T11:50:36.107Z,1665.00
2019-05-02T11:51:36.091Z,1580.62
2019-05-02T11:52:37.564Z,1766.25
2019-05-02T11:53:36.070Z,1726.88
2019-05-02T11:54:39.318Z,1738.12
2019-05-02T11:55:37.100Z,1755.00
2019-05-02T11:56:36.042Z,1710.00
2019-05-02T11:57:36.029Z,1749.38
2019-05-02T11:58:41.806Z,1794.38
2019-05-02T11:59:37.004Z,1811.25
2019-05-02T12:00:39.727Z,1845.00
2019-05-02T12:01:39.796Z,1816.88
2019-05-02T12:02:35.984Z,1856.25
2019-05-02T12:03:37.086Z,1794.38
2019-05-02T12:04:35.974Z,1811.25
2019-05-02T12:05:39.048Z,1800.00
2019-05-02T12:06:35.932Z,1839.38
2019-05-02T12:07:35.955Z,1895.62
2019-05-02T12:08:39.345Z,1957.50
2019-05-02T12:09:36.905Z,1906.88
2019-05-02T12:10:36.758Z,2002.50
2019-05-02T12:11:35.909Z,2002.50
2019-05-02T12:12:36.371Z,1794.38
2019-05-02T12:13:35.899Z,1957.50
2019-05-02T12:14:36.506Z,2019.38
2019-05-02T12:15:35.846Z,1788.75
2019-05-02T12:16:35.833Z,1743.75
2019-05-02T12:17:35.821Z,1755.00
2019-05-02T12:18:35.865Z,1704.38
2019-05-02T12:19:35.838Z,1530.00
2019-05-02T12:20:36.807Z,1456.88
2019-05-02T12:21:35.779Z,1676.25
2019-05-02T12:22:35.775Z,1608.75
2019-05-02T12:23:36.425Z,1923.75
2019-05-02T12:24:36.464Z,1681.88
2019-05-02T12:25:35.922Z,1558.12
2019-05-02T12:26:35.723Z,1344.38
2019-05-02T12:27:35.727Z,1260.00
2019-05-02T12:28:35.699Z,1417.50
2019-05-02T12:29:35.695Z,1445.62
2019-05-02T12:30:37.724Z,1479.38
2019-05-02T12:31:35.717Z,1563.75
2019-05-02T12:32:35.673Z,1591.88
2019-05-02T12:33:35.668Z,1524.38
2019-05-02T12:34:35.636Z,1378.12
2019-05-02T12:35:35.875Z,1591.88
2019-05-02T12:36:35.881Z,1378.12
2019-05-02T12:37:35.647Z,1215.00
2019-05-02T12:38:35.600Z,1186.88
2019-05-02T12:39:35.588Z,1434.38
2019-05-02T12:40:35.597Z,1636.88
2019-05-02T12:41:35.571Z,1473.75
2019-05-02T12:42:35.812Z,1395.00
2019-05-02T12:43:35.591Z,1389.38
2019-05-02T12:44:35.531Z,1591.88
2019-05-02T12:45:35.522Z,1546.88
2019-05-02T12:46:35.539Z,1282.50
2019-05-02T12:47:35.502Z,1063.12
2019-05-02T12:48:35.505Z,990.00
2019-05-02T12:49:35.528Z,973.12
2019-05-02T12:50:35.481Z,967.50
2019-05-02T12:51:35.467Z,973.12
2019-05-02T12:52:35.452Z,973.12
2019-05-02T12:53:35.443Z,1012.50
2019-05-02T12:54:35.448Z,1029.38
2019-05-02T12:55:35.481Z,1074.38
2019-05-02T12:56:36.385Z,1029.38
2019-05-02T12:57:35.398Z,973.12
2019-05-02T12:58:35.382Z,978.75
2019-05-02T12:59:35.373Z,990.00
2019-05-02T13:00:35.422Z,1018.12
2019-05-02T13:01:35.390Z,1153.12
2019-05-02T13:02:35.349Z,1192.50
2019-05-02T13:03:35.330Z,1153.12
2019-05-02T13:04:35.370Z,1091.25
2019-05-02T13:05:35.306Z,1012.50
2019-05-02T13:06:37.115Z,995.62
2019-05-02T13:07:35.353Z,984.38
2019-05-02T13:08:35.286Z,973.12
2019-05-02T13:09:35.265Z,961.88
2019-05-02T13:10:35.254Z,990.00
2019-05-02T13:11:36.829Z,1046.25
2019-05-02T13:12:36.331Z,1119.38
2019-05-02T13:13:35.219Z,1141.88
2019-05-02T13:14:35.207Z,1293.75
2019-05-02T13:15:35.203Z,1338.75
2019-05-02T13:16:35.182Z,1333.12
2019-05-02T13:17:42.819Z,1321.88
2019-05-02T13:18:37.225Z,1344.38
2019-05-02T13:19:39.894Z,1395.00
2019-05-02T13:20:38.296Z,1423.12
2019-05-02T13:21:42.223Z,1451.25
2019-05-02T13:22:36.182Z,1479.38
2019-05-02T13:23:37.162Z,1496.25
2019-05-02T13:24:35.177Z,1518.75
2019-05-02T13:25:36.871Z,1479.38
2019-05-02T13:26:35.076Z,1288.12
2019-05-02T13:27:43.274Z,1479.38
2019-05-02T13:28:36.084Z,1490.62
2019-05-02T13:29:35.041Z,1507.50
2019-05-02T13:30:42.797Z,1524.38
2019-05-02T13:31:36.027Z,1586.25
2019-05-02T13:32:35.007Z,1681.88
2019-05-02T13:33:35.954Z,1749.38
2019-05-02T13:34:34.987Z,1726.88
2019-05-02T13:35:34.975Z,1766.25
2019-05-02T13:36:35.005Z,1771.88
2019-05-02T13:37:35.086Z,1833.75
2019-05-02T13:38:34.955Z,2058.75
2019-05-02T13:39:34.935Z,2160.00
2019-05-02T13:40:34.928Z,2238.75
2019-05-02T13:41:34.944Z,2272.50
2019-05-02T13:42:34.943Z,2261.25
2019-05-02T13:43:34.894Z,2278.12
2019-05-02T13:44:34.881Z,2328.75
2019-05-02T13:45:34.896Z,2295.00
2019-05-02T13:46:34.863Z,2362.50
2019-05-02T13:47:34.852Z,2396.25
2019-05-02T13:48:34.982Z,2278.12
2019-05-02T13:49:34.833Z,1980.00
2019-05-02T13:50:34.817Z,1980.00
2019-05-02T13:51:36.550Z,2137.50
2019-05-02T13:52:34.805Z,1676.25
2019-05-02T13:53:34.788Z,1743.75
2019-05-02T13:54:34.810Z,2126.25
2019-05-02T13:55:34.767Z,2019.38
2019-05-02T13:56:34.755Z,1822.50
2019-05-02T13:57:41.733Z,1963.12
2019-05-02T13:58:35.755Z,2632.50
2019-05-02T13:59:34.731Z,2683.12
2019-05-02T14:00:34.751Z,2475.00
2019-05-02T14:01:34.703Z,1968.75
2019-05-02T14:02:34.693Z,2165.62
2019-05-02T14:03:34.683Z,2255.62
2019-05-02T14:04:34.700Z,2390.62
2019-05-02T14:05:34.662Z,2396.25
2019-05-02T14:06:37.984Z,2446.88
2019-05-02T14:07:34.650Z,2379.38
2019-05-02T14:08:36.876Z,2356.88
2019-05-02T14:09:34.626Z,1338.75
2019-05-02T14:10:39.240Z,2441.25
2019-05-02T14:11:35.663Z,2514.38
2019-05-02T14:12:34.591Z,2401.88
2019-05-02T14:13:34.583Z,2328.75
2019-05-02T14:14:34.600Z,2041.88
2019-05-02T14:15:34.576Z,2227.50
2019-05-02T14:16:34.555Z,2295.00
2019-05-02T14:17:34.601Z,1856.25
2019-05-02T14:18:34.534Z,1513.12
2019-05-02T14:19:34.524Z,1305.00
2019-05-02T14:20:37.263Z,1305.00
2019-05-02T14:21:34.506Z,2210.62
2019-05-02T14:22:34.516Z,1496.25
2019-05-02T14:23:34.523Z,1316.25
2019-05-02T14:24:34.468Z,1676.25
2019-05-02T14:25:34.463Z,1575.00
2019-05-02T14:26:34.455Z,961.88
2019-05-02T14:27:34.443Z,883.12
2019-05-02T14:28:36.432Z,871.88
2019-05-02T14:29:34.488Z,810.00
2019-05-02T14:30:39.358Z,826.88
2019-05-02T14:31:35.394Z,815.62
2019-05-02T14:32:34.423Z,849.38
2019-05-02T14:33:34.379Z,883.12
2019-05-02T14:34:34.368Z,916.88
2019-05-02T14:35:36.295Z,905.62
2019-05-02T14:36:34.356Z,849.38
2019-05-02T14:37:34.338Z,855.00
2019-05-02T14:38:34.322Z,855.00
2019-05-02T14:39:34.315Z,821.25
2019-05-02T14:40:34.304Z,776.25
2019-05-02T14:41:40.900Z,770.62
2019-05-02T14:42:35.301Z,793.12
2019-05-02T14:43:38.257Z,894.38
2019-05-02T14:45:01.373Z,1597.50
2019-05-02T14:45:35.272Z,2176.88
2019-05-02T14:46:39.323Z,2311.88
2019-05-02T14:47:35.309Z,2064.38
2019-05-02T14:48:41.082Z,1558.12
2019-05-02T14:49:35.388Z,1608.75
2019-05-02T14:50:36.573Z,1338.75
2019-05-02T14:51:36.740Z,1113.75
2019-05-02T14:52:37.150Z,1265.62
2019-05-02T14:53:35.931Z,995.62
2019-05-02T14:54:38.035Z,916.88
2019-05-02T14:55:35.139Z,759.38
2019-05-02T14:56:37.717Z,652.50
2019-05-02T14:57:35.139Z,596.25
2019-05-02T14:58:37.723Z,568.12
2019-05-02T14:59:34.141Z,534.38
2019-05-02T15:00:39.433Z,495.00
2019-05-02T15:01:35.090Z,438.75
2019-05-02T15:02:34.610Z,393.75
2019-05-02T15:03:34.069Z,365.62
2019-05-02T15:04:38.320Z,343.12
2019-05-02T15:05:35.057Z,343.12
2019-05-02T15:06:38.420Z,343.12
2019-05-02T15:07:35.010Z,343.12
2019-05-02T15:08:36.727Z,354.38
2019-05-02T15:09:36.316Z,371.25
2019-05-02T15:10:38.806Z,371.25
2019-05-02T15:11:35.152Z,388.12
2019-05-02T15:12:33.954Z,393.75
2019-05-02T15:13:40.115Z,388.12
2019-05-02T15:14:34.945Z,382.50
2019-05-02T15:15:40.664Z,382.50
2019-05-02T15:16:42.287Z,376.88
2019-05-02T15:17:37.809Z,365.62
2019-05-02T15:18:33.890Z,348.75
2019-05-02T15:19:33.878Z,320.62
2019-05-02T15:20:39.247Z,286.88
2019-05-02T15:21:35.019Z,241.88
2019-05-02T15:22:37.410Z,196.88
2019-05-02T15:23:33.866Z,157.50
2019-05-02T15:24:37.433Z,140.62
2019-05-02T15:25:33.816Z,129.38
2019-05-02T15:26:35.621Z,118.12
2019-05-02T15:27:42.277Z,112.50
2019-05-02T15:28:37.378Z,106.88
2019-05-02T15:29:33.767Z,106.88
2019-05-02T15:30:37.250Z,106.88
2019-05-02T15:31:34.745Z,106.88
2019-05-02T15:32:37.278Z,101.25
2019-05-02T15:33:34.728Z,101.25
2019-05-02T15:34:35.567Z,90.00
2019-05-02T15:35:35.968Z,90.00
2019-05-02T15:36:37.062Z,95.62
2019-05-02T15:37:35.954Z,95.62
2019-05-02T15:38:37.279Z,95.62
2019-05-02T15:40:43.485Z,101.25
2019-05-02T15:41:34.636Z,101.25
2019-05-02T15:42:33.655Z,101.25
2019-05-02T15:43:33.618Z,101.25
2019-05-02T15:44:33.611Z,95.62
2019-05-02T15:45:36.817Z,95.62
2019-05-02T15:46:34.582Z,95.62
2019-05-02T15:47:36.969Z,101.25
2019-05-02T15:48:34.577Z,101.25
2019-05-02T15:49:36.681Z,106.88
2019-05-02T15:50:34.592Z,106.88
2019-05-02T15:51:33.538Z,106.88
2019-05-02T15:52:33.515Z,106.88
2019-05-02T15:53:33.507Z,101.25
2019-05-02T15:54:33.497Z,90.00
2019-05-02T15:55:39.562Z,84.38
2019-05-02T15:56:35.658Z,84.38
2019-05-02T15:57:42.807Z,90.00
2019-05-02T15:58:34.449Z,95.62
2019-05-02T15:59:37.690Z,106.88
2019-05-02T16:00:34.433Z,106.88
2019-05-02T16:01:36.602Z,112.50
2019-05-02T16:02:34.500Z,118.12
2019-05-02T16:03:34.390Z,123.75
2019-05-02T16:04:34.386Z,129.38
2019-05-02T16:05:36.512Z,129.38
2019-05-02T16:06:34.382Z,129.38
2019-05-02T16:07:33.351Z,129.38
2019-05-02T16:08:33.476Z,123.75
2019-05-02T16:09:33.334Z,112.50
2019-05-02T16:10:38.471Z,106.88
2019-05-02T16:11:34.320Z,95.62
2019-05-02T16:12:36.066Z,95.62
2019-05-02T16:13:33.293Z,95.62
2019-05-02T16:14:35.938Z,90.00
2019-05-02T16:15:33.295Z,90.00
2019-05-02T16:16:36.572Z,84.38
2019-05-02T16:17:34.244Z,84.38
2019-05-02T16:18:36.011Z,78.75
2019-05-02T16:19:34.258Z,78.75
2019-05-02T16:20:33.210Z,78.75
2019-05-02T16:21:33.206Z,78.75
2019-05-02T16:22:33.189Z,78.75
2019-05-02T16:23:35.644Z,84.38
2019-05-02T16:24:33.220Z,84.38
2019-05-02T16:25:34.080Z,84.38
2019-05-02T16:26:35.276Z,90.00
2019-05-02T16:27:34.145Z,95.62
2019-05-02T16:28:36.828Z,95.62
2019-05-02T16:29:34.159Z,101.25
2019-05-02T16:30:36.995Z,106.88
2019-05-02T16:31:34.134Z,106.88
2019-05-02T16:32:35.681Z,106.88
2019-05-02T16:33:33.069Z,112.50
2019-05-02T16:34:35.309Z,112.50
2019-05-02T16:35:33.091Z,118.12
2019-05-02T16:36:37.409Z,118.12
2019-05-02T16:37:33.067Z,118.12
2019-05-02T16:38:34.955Z,123.75
2019-05-02T16:39:33.001Z,123.75
2019-05-02T16:40:34.918Z,118.12
2019-05-02T16:41:32.981Z,112.50
2019-05-02T16:42:32.969Z,101.25
2019-05-02T16:43:33.012Z,84.38
2019-05-02T16:44:32.982Z,78.75
2019-05-02T16:45:32.946Z,78.75
2019-05-02T16:46:32.999Z,84.38
2019-05-02T16:47:32.982Z,78.75
2019-05-02T16:48:37.622Z,73.12
2019-05-02T16:49:34.010Z,67.50
2019-05-02T16:50:36.663Z,61.88
2019-05-02T16:51:34.603Z,56.25
2019-05-02T16:52:32.859Z,56.25
2019-05-02T16:53:33.395Z,56.25
2019-05-02T16:54:34.548Z,45.00
2019-05-02T16:55:33.883Z,45.00
2019-05-02T16:56:36.928Z,39.38
2019-05-02T16:57:35.141Z,33.75
2019-05-02T16:58:33.703Z,28.12
2019-05-02T16:59:34.436Z,22.50
2019-05-02T17:00:37.056Z,22.50
2019-05-02T17:01:33.865Z,22.50
2019-05-02T17:02:32.759Z,22.50
2019-05-02T17:03:32.750Z,22.50
2019-05-02T17:04:32.730Z,22.50
2019-05-02T17:05:32.717Z,22.50
2019-05-02T17:06:32.709Z,22.50
2019-05-02T17:07:34.930Z,22.50
2019-05-02T17:08:33.684Z,22.50
2019-05-02T17:09:33.541Z,22.50
2019-05-02T17:10:35.045Z,33.75
2019-05-02T17:11:35.800Z,45.00
2019-05-02T17:12:32.643Z,50.62
2019-05-02T17:13:35.629Z,50.62
2019-05-02T17:14:32.653Z,50.62
2019-05-02T17:15:35.422Z,50.62
2019-05-02T17:16:32.601Z,33.75
2019-05-02T17:17:34.871Z,33.75
2019-05-02T17:18:32.750Z,33.75
2019-05-02T17:19:34.789Z,33.75
2019-05-02T17:20:32.556Z,39.38
2019-05-02T17:21:52.248Z,67.50
2019-05-02T17:22:33.534Z,67.50
2019-05-02T17:23:32.863Z,61.88
2019-05-02T17:24:32.511Z,61.88
2019-05-02T17:25:32.586Z,61.88
2019-05-02T17:26:32.489Z,61.88
2019-05-02T17:27:32.588Z,67.50
2019-05-02T17:28:32.467Z,61.88
2019-05-02T17:29:32.564Z,50.62
2019-05-02T17:30:38.617Z,61.88
2019-05-02T17:31:33.465Z,61.88
2019-05-02T17:32:34.146Z,56.25
2019-05-02T17:33:33.441Z,56.25
2019-05-02T17:34:34.867Z,56.25
2019-05-02T17:35:32.633Z,67.50
2019-05-02T17:36:32.635Z,56.25
2019-05-02T17:37:32.603Z,50.62
2019-05-02T17:38:32.387Z,45.00
2019-05-02T17:39:32.349Z,33.75
2019-05-02T17:40:32.346Z,33.75
2019-05-02T17:41:32.328Z,28.12
2019-05-02T17:42:32.435Z,28.12
2019-05-02T17:43:32.951Z,33.75
2019-05-02T17:44:32.325Z,33.75
2019-05-02T17:45:33.570Z,28.12
2019-05-02T17:46:33.273Z,33.75
2019-05-02T17:47:36.059Z,28.12
2019-05-02T17:48:34.751Z,33.75
2019-05-02T17:49:36.682Z,39.38
2019-05-02T17:50:32.957Z,50.62
2019-05-02T17:51:35.755Z,61.88
2019-05-02T17:52:33.226Z,67.50
2019-05-02T17:53:33.777Z,50.62
2019-05-02T17:54:33.225Z,39.38
2019-05-02T17:55:40.148Z,22.50
2019-05-02T17:56:33.165Z,16.88
2019-05-02T17:57:33.337Z,22.50
2019-05-02T17:58:32.145Z,28.12
2019-05-02T17:59:36.054Z,33.75
2019-05-02T18:00:33.464Z,39.38
2019-05-02T18:01:35.025Z,39.38
2019-05-02T18:02:32.104Z,33.75
2019-05-02T18:03:35.237Z,28.12
2019-05-02T18:04:32.533Z,22.50
2019-05-02T18:05:35.656Z,22.50
2019-05-02T18:06:35.309Z,28.12
2019-05-02T18:07:36.117Z,33.75
2019-05-02T18:08:32.384Z,33.75
2019-05-02T18:09:35.022Z,33.75
2019-05-02T18:10:32.349Z,33.75
2019-05-02T18:11:36.394Z,33.75
2019-05-02T18:12:33.042Z,33.75
2019-05-02T18:13:33.986Z,28.12
2019-05-02T18:14:31.974Z,28.12
2019-05-02T18:15:34.686Z,28.12
2019-05-02T18:16:32.418Z,28.12
2019-05-02T18:17:31.934Z,28.12
2019-05-02T18:18:32.114Z,22.50
2019-05-02T18:19:31.913Z,22.50
2019-05-02T18:20:32.475Z,22.50
2019-05-02T18:21:32.355Z,22.50
2019-05-02T18:22:34.677Z,22.50
2019-05-02T18:23:32.243Z,22.50
2019-05-02T18:24:32.800Z,22.50
2019-05-02T18:25:31.861Z,22.50
2019-05-02T18:26:31.884Z,22.50
2019-05-02T18:27:31.839Z,22.50
2019-05-02T18:28:31.828Z,22.50
2019-05-02T18:29:36.249Z,22.50
2019-05-02T18:30:32.834Z,22.50
2019-05-02T18:31:34.805Z,22.50
2019-05-02T18:32:32.789Z,22.50
2019-05-02T18:33:35.845Z,22.50
2019-05-02T18:34:32.759Z,22.50
2019-05-02T18:35:32.543Z,16.88
2019-05-02T18:36:32.110Z,16.88
2019-05-02T18:37:32.558Z,16.88
2019-05-02T18:38:32.414Z,16.88
2019-05-02T18:39:34.874Z,16.88
2019-05-02T18:40:32.699Z,11.25
2019-05-02T18:41:31.901Z,11.25
2019-05-02T18:42:31.826Z,5.62
2019-05-02T18:43:36.091Z,5.62
2019-05-02T18:44:32.673Z,5.62
2019-05-02T18:45:31.947Z,5.62
2019-05-02T18:46:31.670Z,5.62
2019-05-02T18:47:33.490Z,5.62
2019-05-02T18:48:31.944Z,5.62
2019-05-02T18:49:32.133Z,5.62
2019-05-02T18:50:32.022Z,5.62
2019-05-02T18:51:32.047Z,5.62
2019-05-02T18:52:38.347Z,5.62
2019-05-02T18:53:32.785Z,5.62
2019-05-02T18:54:31.550Z,5.62
2019-05-02T18:55:31.808Z,5.62
2019-05-02T18:56:34.288Z,5.62
2019-05-02T18:57:32.503Z,5.62
2019-05-02T18:58:31.988Z,0.00
2019-05-02T18:59:32.024Z,0.00
2019-05-02T19:00:37.852Z,0.00
2019-05-02T19:01:32.456Z,0.00
2019-05-02T19:02:34.387Z,0.00
2019-05-02T19:03:33.250Z,0.00
2019-05-02T19:04:38.246Z,0.00
2019-05-02T19:05:32.654Z,0.00
2019-05-02T19:06:33.230Z,0.00
2019-05-02T19:07:35.617Z,0.00
2019-05-02T19:08:38.777Z,0.00
2019-05-02T19:09:33.176Z,0.00
2019-05-02T19:10:32.400Z,0.00
2019-05-02T19:11:35.093Z,0.00
2019-05-02T19:12:32.826Z,0.00
2019-05-02T19:13:32.696Z,0.00
2019-05-02T19:14:32.755Z,0.00
2019-05-02T19:15:34.011Z,0.00
2019-05-02T19:16:31.776Z,0.00
2019-05-02T19:17:31.334Z,0.00
2019-05-02T19:18:32.352Z,0.00
2019-05-02T19:19:32.988Z,0.00
2019-05-02T19:20:32.639Z,0.00
2019-05-02T19:21:36.065Z,0.00
2019-05-02T19:22:32.288Z,0.00
2019-05-02T19:23:32.031Z,0.00
2019-05-02T19:24:34.885Z,0.00
2019-05-02T19:25:32.188Z,0.00
2019-05-02T19:26:32.648Z,0.00
2019-05-02T19:27:32.799Z,0.00
2019-05-02T19:28:34.643Z,0.00
2019-05-02T19:29:32.165Z,0.00
2019-05-02T19:30:32.627Z,0.00
2019-05-02T19:31:32.027Z,0.00
2019-05-02T19:32:32.030Z,0.00
2019-05-02T19:33:31.885Z,0.00
2019-05-02T19:34:32.343Z,0.00
2019-05-02T19:35:32.798Z,0.00
2019-05-02T19:36:32.732Z,0.00
2019-05-02T19:37:31.632Z,0.00
2019-05-02T19:38:32.351Z,0.00
2019-05-02T19:39:32.264Z,0.00
2019-05-02T19:40:31.833Z,0.00
2019-05-02T19:41:32.063Z,0.00
2019-05-02T19:42:31.006Z,0.00
2019-05-02T19:43:32.468Z,0.00
2019-05-02T19:44:32.039Z,0.00
2019-05-02T19:45:32.720Z,0.00
2019-05-02T19:46:35.172Z,0.00
2019-05-02T19:47:31.952Z,0.00
2019-05-02T19:48:34.351Z,0.00
2019-05-02T19:49:32.910Z,0.00
2019-05-02T19:50:34.728Z,0.00
2019-05-02T19:51:31.957Z,0.00
2019-05-02T19:52:39.184Z,0.00
2019-05-02T19:53:32.366Z,0.00
2019-05-02T19:54:33.539Z,0.00
2019-05-02T19:55:32.176Z,0.00
2019-05-02T19:56:34.249Z,0.00
2019-05-02T19:57:32.383Z,0.00
2019-05-02T19:58:32.024Z,0.00
2019-05-02T19:59:32.133Z,0.00
2019-05-02T20:00:31.817Z,0.00
2019-05-02T20:01:30.820Z,0.00
2019-05-02T20:02:32.623Z,0.00
2019-05-02T20:03:32.319Z,0.00
2019-05-02T20:04:32.613Z,0.00
2019-05-02T20:05:32.267Z,0.00
2019-05-02T20:06:32.491Z,0.00
2019-05-02T20:07:32.183Z,0.00
2019-05-02T20:08:32.606Z,0.00
2019-05-02T20:09:31.874Z,0.00
2019-05-02T20:10:32.167Z,0.00
2019-05-02T20:11:33.001Z,0.00
2019-05-02T20:12:30.678Z,0.00
2019-05-02T20:13:32.712Z,0.00
2019-05-02T20:14:32.081Z,0.00
2019-05-02T20:15:32.681Z,0.00
2019-05-02T20:16:31.917Z,0.00
2019-05-02T20:17:32.589Z,0.00
2019-05-02T20:18:36.097Z,0.00
2019-05-02T20:19:34.528Z,0.00
2019-05-02T20:20:30.610Z,0.00
2019-05-02T20:21:32.543Z,0.00
2019-05-02T20:22:31.676Z,0.00
2019-05-02T20:23:34.915Z,0.00
2019-05-02T20:24:32.051Z,0.00
2019-05-02T20:25:37.491Z,0.00
2019-05-02T20:26:32.555Z,0.00
2019-05-02T20:27:32.794Z,0.00
2019-05-02T20:28:31.776Z,0.00
2019-05-02T20:29:32.150Z,0.00
2019-05-02T20:30:30.492Z,0.00
2019-05-02T20:31:32.132Z,0.00
2019-05-02T20:32:32.228Z,0.00
2019-05-02T20:33:32.446Z,0.00
2019-05-02T20:34:32.447Z,0.00